Time;durP1;ratioP1;P1;durP2;ratioP2;P2;SDS_P1;SDS_P2;PMS_P1;PMS_P2;Temp;Humidity;BMP_temperature;BMP_pressure;BME280_temperature;BME280_humidity;BME280_pressure;Samples;Min_cycle;Max_cycle;Signal;HPM_P1;HPM_P2
2022/06/15 00:01:45;;;;;;;8.50;7.70;;;;;;;18.06;79.17;98226.84;4204511;28;20635;-88
2022/06/15 00:03:48;;;;;;;11.93;7.83;;;;;;;18.05;78.93;98227.81;4216980;28;20708;-88
2022/06/15 00:05:52;;;;;;;9.10;7.40;;;;;;;18.02;78.33;98225.47;4203106;28;20688;-88
2022/06/15 00:11:18;;;;;;;9.33;7.93;;;;;;;17.92;79.84;98227.34;4216195;28;20699;-88
2022/06/15 00:13:21;;;;;;;8.73;7.60;;;;;;;17.88;80.12;98225.97;4209065;28;20673;-87
2022/06/15 00:15:24;;;;;;;13.17;7.93;;;;;;;17.83;79.28;98220.31;4201091;28;20642;-88
2022/06/15 00:17:31;;;;;;;9.27;8.27;;;;;;;17.80;79.98;98225.88;4221478;28;20657;-88
2022/06/15 00:19:34;;;;;;;10.47;8.23;;;;;;;17.77;80.46;98220.88;4206449;28;20643;-87
2022/06/15 00:21:38;;;;;;;11.60;8.13;;;;;;;17.72;80.18;98225.75;4200652;28;20655;-88
2022/06/15 00:23:41;;;;;;;9.93;8.30;;;;;;;17.69;79.11;98223.41;4204806;28;20729;-88
2022/06/15 00:25:49;;;;;;;9.90;7.83;;;;;;;17.65;79.74;98229.09;4205776;28;20634;-88
2022/06/15 00:27:52;;;;;;;10.10;8.30;;;;;;;17.63;79.52;98223.97;4218156;28;20645;-88
2022/06/15 00:29:55;;;;;;;10.83;8.70;;;;;;;17.60;78.89;98224.28;4219247;28;20694;-88
2022/06/15 00:31:58;;;;;;;9.53;8.20;;;;;;;17.56;79.55;98222.06;4209327;28;20690;-88
2022/06/15 00:34:03;;;;;;;9.53;7.87;;;;;;;17.53;79.82;98217.94;4221636;28;20641;-88
2022/06/15 00:36:08;;;;;;;10.33;8.37;;;;;;;17.49;80.71;98232.38;4222026;28;21971;-88
2022/06/15 00:38:14;;;;;;;10.83;7.80;;;;;;;17.49;80.10;98232.38;4201850;28;20753;-88
2022/06/15 00:40:18;;;;;;;9.37;8.30;;;;;;;17.47;81.48;98233.50;4220497;28;21306;-88
2022/06/15 00:42:21;;;;;;;8.60;7.70;;;;;;;17.46;80.19;98226.56;4218665;28;20667;-88
2022/06/15 00:44:37;;;;;;;10.70;8.83;;;;;;;17.44;81.13;98222.38;4222053;28;20645;-88
2022/06/15 00:46:42;;;;;;;9.77;8.73;;;;;;;17.40;81.37;98231.59;4221770;28;20636;-88
2022/06/15 00:48:46;;;;;;;10.80;8.60;;;;;;;17.35;81.72;98229.38;4211560;28;20634;-88
2022/06/15 00:50:51;;;;;;;9.47;8.30;;;;;;;17.30;81.89;98228.13;4216827;28;20641;-88
2022/06/15 00:52:58;;;;;;;9.73;8.40;;;;;;;17.27;81.79;98225.78;4216772;28;20705;-88
2022/06/15 00:55:05;;;;;;;9.37;8.47;;;;;;;17.25;80.79;98222.47;4217872;28;20621;-88
2022/06/15 00:57:09;;;;;;;8.43;7.50;;;;;;;17.22;80.60;98222.75;4207044;28;20643;-88
2022/06/15 00:59:15;;;;;;;9.60;8.53;;;;;;;17.20;81.74;98222.88;4225367;28;20678;-88
2022/06/15 01:01:20;;;;;;;10.10;8.00;;;;;;;17.19;81.24;98223.00;4200830;28;20742;-87
2022/06/15 01:03:23;;;;;;;9.70;8.20;;;;;;;17.17;81.91;98225.78;4216439;28;20640;-88
2022/06/15 01:05:33;;;;;;;8.60;7.70;;;;;;;17.16;80.56;98228.53;4201518;28;20686;-88
2022/06/15 01:07:51;;;;;;;9.43;8.10;;;;;;;17.13;80.52;98223.56;4204770;28;20979;-88
2022/06/15 01:10:01;;;;;;;9.80;8.37;;;;;;;17.09;80.48;98216.88;4225107;28;21219;-88
2022/06/15 01:12:13;;;;;;;9.47;8.43;;;;;;;17.07;81.99;98218.84;4202468;28;20644;-88
2022/06/15 01:14:36;;;;;;;9.90;7.83;;;;;;;17.04;80.18;98209.41;4222734;28;20656;-88
2022/06/15 01:16:44;;;;;;;9.37;8.37;;;;;;;16.99;80.53;98195.00;4203177;28;20727;-88
2022/06/15 01:18:54;;;;;;;13.10;8.33;;;;;;;16.89;81.85;98194.19;4208329;28;20655;-88
2022/06/15 01:21:03;;;;;;;11.80;8.63;;;;;;;16.83;81.25;98193.91;4206202;28;20698;-88
2022/06/15 01:23:39;;;;;;;8.43;7.63;;;;;;;16.74;81.15;98184.22;4211628;28;20719;-87
2022/06/15 01:25:45;;;;;;;8.73;7.87;;;;;;;16.73;82.29;98180.78;4209819;28;20633;-88
2022/06/15 01:28:08;;;;;;;11.30;8.13;;;;;;;16.65;82.25;98177.97;4211588;28;20639;-88
2022/06/15 01:30:26;;;;;;;10.60;8.90;;;;;;;16.65;82.94;98185.06;4215049;28;20656;-88
2022/06/15 01:32:33;;;;;;;9.97;8.93;;;;;;;16.67;83.13;98189.22;4209995;28;21206;-88
2022/06/15 01:34:49;;;;;;;9.17;7.80;;;;;;;16.70;81.95;98188.94;4206458;28;20645;-88
2022/06/15 01:37:09;;;;;;;9.80;8.00;;;;;;;16.72;82.97;98199.34;4209177;28;20635;-88
2022/06/15 01:39:18;;;;;;;8.10;7.30;;;;;;;16.68;83.92;98190.88;4207643;28;21197;-88
2022/06/15 01:41:27;;;;;;;8.87;8.03;;;;;;;16.64;81.36;98189.50;4208332;28;20647;-88
2022/06/15 01:43:34;;;;;;;8.77;7.87;;;;;;;16.61;82.66;98189.78;4207823;28;20625;-88
2022/06/15 01:45:39;;;;;;;9.50;7.70;;;;;;;16.58;81.94;98182.16;4201747;28;20637;-88
2022/06/15 01:47:44;;;;;;;9.40;8.30;;;;;;;16.55;82.43;98181.59;4204818;28;20635;-88
2022/06/15 01:49:51;;;;;;;8.47;7.40;;;;;;;16.52;83.02;98174.81;4206768;28;21234;-88
2022/06/15 01:51:56;;;;;;;8.80;7.70;;;;;;;16.51;81.83;98173.13;4203237;28;20636;-88
2022/06/15 01:54:04;;;;;;;10.23;7.30;;;;;;;16.50;83.79;98169.81;4221382;28;20676;-88
2022/06/15 01:56:12;;;;;;;14.47;8.07;;;;;;;16.46;82.76;98156.09;4200952;28;21478;-88
2022/06/15 01:58:18;;;;;;;8.57;7.67;;;;;;;16.44;83.69;98170.38;4206301;28;20647;-88
2022/06/15 02:00:21;;;;;;;9.37;8.03;;;;;;;16.43;83.14;98168.72;4205074;28;20628;-88
2022/06/15 02:02:29;;;;;;;9.63;8.67;;;;;;;16.42;82.70;98154.72;4209240;28;20668;-88
2022/06/15 02:04:36;;;;;;;8.97;7.47;;;;;;;16.43;82.27;98160.81;4204907;28;20732;-88
2022/06/15 02:06:43;;;;;;;8.93;8.00;;;;;;;16.41;82.27;98162.75;4205212;28;20645;-88
2022/06/15 02:08:50;;;;;;;8.80;7.90;;;;;;;16.39;81.54;98162.03;4205246;28;20632;-88
2022/06/15 02:10:58;;;;;;;9.37;8.47;;;;;;;16.38;83.51;98165.66;4206395;28;20653;-87
2022/06/15 02:13:04;;;;;;;8.93;7.90;;;;;;;16.33;83.31;98168.72;4217812;28;20642;-88
2022/06/15 02:15:12;;;;;;;8.93;8.00;;;;;;;16.30;82.02;98160.28;4218551;28;20623;-88
2022/06/15 02:17:22;;;;;;;9.40;8.07;;;;;;;16.28;83.04;98168.31;4209924;28;20691;-88
2022/06/15 02:19:32;;;;;;;9.37;7.63;;;;;;;16.27;82.37;98160.53;4216428;28;20665;-88
2022/06/15 02:21:37;;;;;;;10.00;7.40;;;;;;;16.25;82.48;98165.94;4207096;28;20662;-88
2022/06/15 02:23:41;;;;;;;9.37;7.50;;;;;;;16.22;83.03;98163.59;4209177;28;21008;-88
2022/06/15 02:25:51;;;;;;;8.57;7.63;;;;;;;16.17;81.11;98163.13;4226823;27;20642;-88
2022/06/15 02:27:54;;;;;;;11.00;8.07;;;;;;;16.14;84.06;98168.66;4220900;28;21038;-88
2022/06/15 02:30:09;;;;;;;9.63;7.87;;;;;;;16.08;84.12;98165.75;4207069;28;20651;-88
2022/06/15 02:32:17;;;;;;;10.23;7.70;;;;;;;16.06;83.59;98159.78;4210994;28;20638;-88
2022/06/15 02:34:21;;;;;;;9.20;8.07;;;;;;;16.02;82.82;98159.22;4205181;28;20633;-88
2022/06/15 02:36:25;;;;;;;8.90;8.00;;;;;;;16.00;83.99;98159.47;4218464;28;20718;-88
2022/06/15 02:38:30;;;;;;;11.23;9.13;;;;;;;15.97;82.63;98157.16;4202927;28;20673;-88
2022/06/15 02:40:33;;;;;;;10.37;7.43;;;;;;;15.94;84.32;98154.78;4215164;28;21088;-88
2022/06/15 02:42:40;;;;;;;8.97;7.57;;;;;;;15.92;84.20;98160.19;4204928;28;20639;-88
2022/06/15 02:44:49;;;;;;;10.90;7.83;;;;;;;15.92;82.93;98162.81;4207594;28;20618;-88
2022/06/15 02:46:54;;;;;;;9.00;7.93;;;;;;;15.92;83.26;98162.81;4205646;28;20635;-88
2022/06/15 02:48:57;;;;;;;11.03;7.87;;;;;;;15.91;84.30;98161.16;4206267;28;20638;-88
2022/06/15 02:51:04;;;;;;;10.30;7.57;;;;;;;15.86;83.02;98160.72;4197496;28;20723;-88
2022/06/15 02:53:15;;;;;;;8.80;7.90;;;;;;;15.84;82.60;98164.47;4199414;28;20636;-88
2022/06/15 02:55:20;;;;;;;8.70;7.80;;;;;;;15.81;84.28;98160.28;4233783;27;20654;-88
2022/06/15 02:57:25;;;;;;;9.77;8.10;;;;;;;15.82;83.19;98163.78;4200871;28;21205;-87
2022/06/15 02:59:28;;;;;;;11.37;7.83;;;;;;;15.81;81.98;98165.53;4202064;28;20624;-87
2022/06/15 03:01:32;;;;;;;8.47;7.67;;;;;;;15.80;84.20;98166.53;4222465;28;20720;-88
2022/06/15 03:03:36;;;;;;;8.00;7.20;;;;;;;15.78;83.02;98175.50;4199496;28;20672;-88
2022/06/15 03:05:49;;;;;;;9.30;8.50;;;;;;;15.76;84.43;98172.19;4200791;28;20645;-88
2022/06/15 03:07:54;;;;;;;8.87;7.53;;;;;;;15.72;83.96;98171.59;4218143;28;20650;-88
2022/06/15 03:09:59;;;;;;;8.40;7.57;;;;;;;15.73;83.40;98177.72;4222741;28;20638;-88
2022/06/15 03:12:03;;;;;;;9.53;7.70;;;;;;;15.71;82.72;98190.16;4216445;28;20774;-88
2022/06/15 03:14:13;;;;;;;8.67;7.80;;;;;;;15.69;82.74;98182.41;4204838;28;20636;-88
2022/06/15 03:16:16;;;;;;;9.27;8.33;;;;;;;15.68;83.15;98183.38;4206736;28;22021;-88
2022/06/15 03:18:22;;;;;;;8.63;7.73;;;;;;;15.68;84.41;98188.66;4202945;28;21049;-88
2022/06/15 03:20:28;;;;;;;8.07;7.23;;;;;;;15.63;82.45;98188.19;4197277;28;20641;-88
2022/06/15 03:22:34;;;;;;;12.80;9.10;;;;;;;15.60;83.59;98183.19;4199672;28;20751;-88
2022/06/15 03:24:41;;;;;;;9.90;7.90;;;;;;;15.58;83.64;98179.88;4218185;28;20639;-88
2022/06/15 03:26:48;;;;;;;10.00;8.53;;;;;;;15.56;83.44;98181.81;4208550;28;20638;-88
2022/06/15 03:28:55;;;;;;;9.90;8.10;;;;;;;15.56;84.51;98181.00;4204423;28;20631;-88
2022/06/15 03:31:03;;;;;;;10.10;8.17;;;;;;;15.55;83.36;98178.50;4224514;28;21336;-88
2022/06/15 03:33:07;;;;;;;12.90;8.23;;;;;;;15.53;84.76;98181.25;4204409;28;21258;-88
2022/06/15 03:35:13;;;;;;;10.43;8.50;;;;;;;15.50;85.16;98173.63;4205796;28;20741;-88
2022/06/15 03:37:17;;;;;;;11.37;8.47;;;;;;;15.47;84.88;98176.53;4207796;28;20637;-88
2022/06/15 03:39:21;;;;;;;8.70;7.80;;;;;;;15.49;84.30;98171.13;4221821;28;20768;-88
2022/06/15 03:41:28;;;;;;;9.30;8.40;;;;;;;15.50;84.33;98170.16;4222481;28;21032;-87
2022/06/15 03:43:33;;;;;;;8.63;7.83;;;;;;;15.48;84.27;98169.47;4199454;28;21198;-87
2022/06/15 03:45:37;;;;;;;9.13;7.67;;;;;;;15.47;83.40;98171.28;4215005;28;20663;-88
2022/06/15 03:47:41;;;;;;;8.77;7.97;;;;;;;15.46;84.11;98169.59;4202708;28;20651;-88
2022/06/15 03:49:47;;;;;;;10.13;8.53;;;;;;;15.46;83.49;98159.09;4204003;28;20628;-88
2022/06/15 03:51:50;;;;;;;12.33;8.30;;;;;;;15.45;83.48;98153.97;4201529;28;20682;-88
2022/06/15 03:53:54;;;;;;;9.90;8.60;;;;;;;15.46;84.06;98163.53;4203806;28;20634;-88
2022/06/15 03:55:57;;;;;;;11.10;9.03;;;;;;;15.50;85.34;98154.38;4219127;28;20630;-88
2022/06/15 03:58:00;;;;;;;10.00;8.23;;;;;;;15.54;83.70;98153.16;4206626;28;20684;-88
2022/06/15 04:00:07;;;;;;;11.20;7.87;;;;;;;15.54;84.08;98155.78;4203218;28;20742;-87
2022/06/15 04:02:25;;;;;;;10.67;9.00;;;;;;;15.57;84.40;98157.19;4219608;28;20661;-88
2022/06/15 04:04:30;;;;;;;9.90;8.90;;;;;;;15.60;83.30;98149.00;4205262;28;20682;-88
2022/06/15 04:06:36;;;;;;;12.10;8.73;;;;;;;15.62;83.71;98155.00;4214336;28;21208;-88
2022/06/15 04:08:42;;;;;;;12.00;8.70;;;;;;;15.59;84.53;98160.50;4207378;28;20632;-88
2022/06/15 04:11:58;;;;;;;9.67;8.67;;;;;;;15.60;83.50;98158.72;4212006;28;21060;-88
2022/06/15 04:13:39;;;;;;;9.40;8.50;;;;;;;15.63;83.30;98161.88;4205853;28;24331;-88
2022/06/15 04:15:44;;;;;;;14.07;9.57;;;;;;;15.64;84.28;98158.31;4216753;28;20729;-88
2022/06/15 04:17:49;;;;;;;9.60;8.60;;;;;;;15.67;84.49;98165.94;4203558;28;21135;-88
2022/06/15 04:22:27;;;;;;;11.50;8.43;;;;;;;15.72;84.54;98171.59;4204550;28;20654;-87
2022/06/15 04:24:31;;;;;;;9.10;8.17;;;;;;;15.76;84.61;98162.50;4203687;28;20740;-88
2022/06/15 04:26:35;;;;;;;11.63;9.60;;;;;;;15.80;83.13;98163.91;4207362;28;20711;-88
2022/06/15 04:28:43;;;;;;;11.03;8.60;;;;;;;15.82;83.49;98161.97;4203865;28;20731;-88
2022/06/15 04:30:57;;;;;;;12.90;8.60;;;;;;;15.84;83.27;98162.66;4208169;28;20981;-88
2022/06/15 04:33:05;;;;;;;10.10;9.00;;;;;;;15.82;83.69;98172.47;4196983;28;20629;-88
2022/06/15 04:35:10;;;;;;;10.30;9.20;;;;;;;15.85;82.11;98188.00;4216038;28;21054;-88
2022/06/15 04:37:14;;;;;;;11.23;9.30;;;;;;;15.88;83.65;98177.19;4203353;28;20636;-88
2022/06/15 04:39:23;;;;;;;11.90;9.00;;;;;;;15.94;84.06;98181.09;4204895;28;20665;-88
2022/06/15 04:41:27;;;;;;;10.13;9.03;;;;;;;15.98;83.48;98188.56;4204329;28;20677;-88
2022/06/15 04:43:31;;;;;;;10.23;8.53;;;;;;;16.02;83.04;98192.59;4203089;28;20746;-88
2022/06/15 04:45:35;;;;;;;9.73;8.67;;;;;;;16.08;83.92;98197.31;4206630;28;20657;-88
2022/06/15 04:47:45;;;;;;;12.83;9.27;;;;;;;16.14;83.26;98191.50;4221866;28;20627;-88
2022/06/15 04:49:48;;;;;;;12.00;10.03;;;;;;;16.20;83.82;98198.88;4205685;28;20616;-88
2022/06/15 04:51:51;;;;;;;10.17;8.97;;;;;;;16.24;83.90;98201.13;4200855;28;20650;-88
2022/06/15 04:53:58;;;;;;;10.80;9.23;;;;;;;16.31;82.62;98201.41;4198452;28;20626;-88
2022/06/15 04:56:01;;;;;;;11.37;8.67;;;;;;;16.37;83.23;98200.84;4202257;28;20652;-88
2022/06/15 04:58:05;;;;;;;14.43;9.07;;;;;;;16.44;82.85;98201.97;4216857;28;20718;-88
2022/06/15 05:00:17;;;;;;;12.77;8.90;;;;;;;16.49;82.90;98199.75;4207698;28;20714;-88
2022/06/15 05:02:20;;;;;;;10.13;8.77;;;;;;;16.55;83.99;98203.50;4205764;28;21067;-88
2022/06/15 05:04:26;;;;;;;10.10;8.83;;;;;;;16.63;83.16;98208.09;4217226;28;20664;-88
2022/06/15 05:06:36;;;;;;;10.00;8.90;;;;;;;16.69;81.39;98203.09;4203356;28;20630;-89
2022/06/15 05:08:41;;;;;;;15.00;9.10;;;;;;;16.77;82.35;98207.66;4203846;28;20628;-90
2022/06/15 05:10:54;;;;;;;9.53;8.53;;;;;;;16.84;81.65;98209.59;4188419;28;20662;-88
2022/06/15 05:13:15;;;;;;;11.67;9.60;;;;;;;16.91;82.48;98210.69;4208737;28;20654;-88
2022/06/15 05:15:22;;;;;;;10.33;8.83;;;;;;;16.98;83.43;98210.97;4203026;28;20819;-88
2022/06/15 05:17:28;;;;;;;12.17;9.70;;;;;;;17.05;82.33;98205.81;4204768;28;21290;-88
2022/06/15 05:19:33;;;;;;;9.33;8.43;;;;;;;17.15;81.51;98211.06;4203845;28;20663;-89
2022/06/15 05:21:39;;;;;;;12.57;9.10;;;;;;;17.30;83.00;98215.75;4201190;28;20656;-89
2022/06/15 05:23:43;;;;;;;10.70;8.30;;;;;;;17.44;82.80;98214.47;4205083;28;20616;-89
2022/06/15 05:25:50;;;;;;;9.87;8.83;;;;;;;17.58;81.41;98205.13;4202191;28;20678;-89
2022/06/15 05:27:56;;;;;;;9.57;8.20;;;;;;;17.76;81.47;98213.94;4208226;28;22481;-88
2022/06/15 05:30:00;;;;;;;10.17;9.00;;;;;;;17.93;82.65;98206.06;4211484;28;20636;-89
2022/06/15 05:32:05;;;;;;;11.40;8.33;;;;;;;18.10;81.79;98207.94;4209518;28;20663;-89
2022/06/15 05:34:08;;;;;;;9.77;8.77;;;;;;;18.29;81.06;98217.56;4223092;28;20633;-89
2022/06/15 05:36:15;;;;;;;9.50;7.83;;;;;;;18.54;80.00;98212.38;4203589;28;20706;-89
2022/06/15 05:38:18;;;;;;;7.90;7.20;;;;;;;18.86;79.91;98205.56;4208945;28;20619;-89
2022/06/15 05:40:21;;;;;;;9.87;7.87;;;;;;;19.28;79.42;98211.88;4211395;28;21017;-89
2022/06/15 05:42:27;;;;;;;8.67;7.80;;;;;;;19.68;76.51;98224.38;4208101;28;20765;-88
2022/06/15 05:44:43;;;;;;;9.87;7.97;;;;;;;20.12;76.26;98216.16;4208678;28;21099;-89
2022/06/15 05:46:46;;;;;;;9.20;6.93;;;;;;;20.52;73.66;98217.09;4206545;28;20652;-89
2022/06/15 05:49:04;;;;;;;8.63;6.80;;;;;;;21.05;73.98;98220.13;4208229;28;20714;-89
2022/06/15 05:51:08;;;;;;;8.63;6.53;;;;;;;21.52;70.92;98214.00;4225226;28;20629;-89
2022/06/15 05:53:13;;;;;;;9.20;6.73;;;;;;;21.96;70.55;98211.50;4220079;28;21069;-89
2022/06/15 05:55:17;;;;;;;9.00;6.53;;;;;;;22.38;69.34;98212.84;4217829;28;20746;-89
2022/06/15 05:57:22;;;;;;;11.13;6.90;;;;;;;22.75;69.75;98215.63;4204757;28;20636;-89
2022/06/15 05:59:25;;;;;;;7.70;6.60;;;;;;;23.10;66.33;98217.72;4222974;28;20629;-90
2022/06/15 06:01:30;;;;;;;9.40;6.40;;;;;;;23.34;65.60;98220.97;4222722;28;20700;-89
2022/06/15 06:03:34;;;;;;;9.20;5.87;;;;;;;23.66;65.04;98223.34;4206640;28;21121;-89
2022/06/15 06:05:38;;;;;;;6.83;5.80;;;;;;;23.94;64.79;98230.53;4217357;28;20640;-90
2022/06/15 06:07:41;;;;;;;6.43;5.83;;;;;;;24.24;63.30;98219.66;4209205;28;20641;-90
2022/06/15 06:09:46;;;;;;;9.27;6.23;;;;;;;24.48;62.18;98220.19;4223716;28;21037;-91
2022/06/15 06:11:49;;;;;;;6.20;5.43;;;;;;;24.81;59.94;98218.72;4208383;28;20696;-92
2022/06/15 06:13:53;;;;;;;6.93;5.67;;;;;;;25.12;58.83;98224.59;4216262;28;20667;-91
2022/06/15 06:15:56;;;;;;;9.60;5.20;;;;;;;25.39;57.91;98225.44;4211527;28;20624;-91
2022/06/15 06:18:02;;;;;;;7.43;5.60;;;;;;;25.70;58.28;98225.94;4205425;28;21089;-89
2022/06/15 06:20:08;;;;;;;8.70;6.43;;;;;;;25.97;58.12;98214.38;4226087;28;21237;-89
2022/06/15 06:22:11;;;;;;;6.70;5.70;;;;;;;26.27;57.52;98213.91;4209668;28;20654;-89
2022/06/15 06:24:14;;;;;;;6.80;5.57;;;;;;;26.60;60.07;98221.09;4223994;28;20630;-89
2022/06/15 06:26:24;;;;;;;7.37;6.60;;;;;;;26.85;57.87;98216.81;4203256;28;20638;-90
2022/06/15 06:28:31;;;;;;;7.93;6.37;;;;;;;26.95;59.56;98212.75;4221070;28;20625;-89
2022/06/15 06:30:34;;;;;;;6.00;5.40;;;;;;;27.22;57.21;98217.91;4205914;28;20641;-90
2022/06/15 06:32:37;;;;;;;8.37;6.27;;;;;;;27.48;55.80;98207.19;4211896;28;20689;-88
2022/06/15 06:34:40;;;;;;;6.60;5.90;;;;;;;27.71;57.47;98218.34;4211108;28;21114;-88
2022/06/15 06:36:45;;;;;;;7.53;5.47;;;;;;;27.85;55.26;98211.94;4211225;28;20663;-88
2022/06/15 06:38:48;;;;;;;5.93;5.33;;;;;;;28.02;54.46;98212.13;4218090;28;20726;-87
2022/06/15 06:40:53;;;;;;;7.60;5.57;;;;;;;28.06;54.05;98213.31;4205104;28;20674;-89
2022/06/15 06:42:57;;;;;;;7.43;5.33;;;;;;;28.22;53.41;98218.28;4203971;28;20856;-89
2022/06/15 06:45:00;;;;;;;8.03;5.83;;;;;;;28.29;53.16;98213.69;4207388;28;20629;-89
2022/06/15 06:47:03;;;;;;;7.10;5.50;;;;;;;28.27;54.90;98205.03;4206120;28;20638;-88
2022/06/15 06:49:07;;;;;;;6.27;5.67;;;;;;;28.49;53.07;98206.38;4220954;28;20666;-88
2022/06/15 06:51:10;;;;;;;5.90;5.40;;;;;;;28.59;53.16;98212.94;4203142;28;20623;-89
2022/06/15 06:53:15;;;;;;;6.67;5.60;;;;;;;28.52;52.72;98211.31;4206326;28;20792;-88
2022/06/15 06:55:18;;;;;;;6.60;5.43;;;;;;;28.62;52.44;98207.13;4203313;28;20719;-88
2022/06/15 06:57:21;;;;;;;6.30;5.70;;;;;;;28.86;53.13;98210.97;4203763;28;20647;-88
2022/06/15 06:59:25;;;;;;;6.37;5.57;;;;;;;28.92;51.91;98205.56;4201677;28;20730;-88
2022/06/15 07:01:29;;;;;;;6.67;5.60;;;;;;;29.11;52.62;98215.38;4201607;28;20658;-87
2022/06/15 07:03:32;;;;;;;6.57;5.77;;;;;;;29.20;51.88;98214.06;4196053;28;20631;-88
2022/06/15 07:05:36;;;;;;;6.80;6.10;;;;;;;29.19;52.71;98213.22;4201487;28;21320;-88
2022/06/15 07:07:39;;;;;;;5.90;5.30;;;;;;;29.36;51.50;98214.34;4200996;28;20618;-88
2022/06/15 07:09:42;;;;;;;5.97;5.37;;;;;;;29.50;52.25;98213.22;4225489;28;20671;-88
2022/06/15 07:11:45;;;;;;;6.63;5.53;;;;;;;29.61;51.29;98212.50;4204398;28;20666;-88
2022/06/15 07:13:49;;;;;;;6.87;5.37;;;;;;;29.72;51.79;98209.09;4206868;28;20704;-88
2022/06/15 07:15:53;;;;;;;5.90;5.40;;;;;;;29.90;52.10;98209.16;4197814;28;20645;-88
2022/06/15 07:17:58;;;;;;;7.23;6.53;;;;;;;29.92;51.36;98212.44;4207412;28;21054;-88
2022/06/15 07:20:02;;;;;;;6.30;5.47;;;;;;;29.99;52.43;98212.16;4202150;28;20705;-88
2022/06/15 07:22:05;;;;;;;7.67;5.10;;;;;;;30.20;52.44;98216.28;4202646;28;21253;-89
2022/06/15 07:24:09;;;;;;;8.50;5.80;;;;;;;30.30;51.36;98214.72;4205137;28;20628;-90
2022/06/15 07:26:15;;;;;;;9.07;5.73;;;;;;;30.43;52.32;98204.63;4204260;28;20643;-92
2022/06/15 07:28:26;;;;;;;6.83;5.60;;;;;;;30.57;51.87;98210.69;4210437;28;20650;-91
2022/06/15 07:30:30;;;;;;;6.53;5.93;;;;;;;30.53;51.99;98209.47;4209045;28;20687;-91
2022/06/15 07:32:35;;;;;;;6.43;5.77;;;;;;;30.58;50.80;98210.44;4212874;28;20631;-91
2022/06/15 07:34:38;;;;;;;8.97;5.90;;;;;;;30.63;51.06;98207.88;4204166;28;20653;-91
2022/06/15 07:36:46;;;;;;;6.63;5.50;;;;;;;30.59;51.92;98204.00;4217359;28;20665;-91
2022/06/15 07:38:50;;;;;;;9.10;5.70;;;;;;;30.64;51.50;98209.53;4203335;28;20666;-91
2022/06/15 07:40:54;;;;;;;6.80;5.70;;;;;;;30.73;50.61;98207.34;4204251;28;20629;-91
2022/06/15 07:42:57;;;;;;;7.53;6.00;;;;;;;30.72;50.03;98197.63;4205245;28;20636;-91
2022/06/15 07:45:01;;;;;;;7.43;5.80;;;;;;;30.65;50.53;98208.47;4217455;28;20691;-90
2022/06/15 07:51:54;;;;;;;7.10;5.50;;;;;;;30.90;50.41;98206.53;4216970;28;20692;-92
2022/06/15 07:53:57;;;;;;;10.40;6.10;;;;;;;30.96;51.13;98211.81;4218262;28;20655;-91
2022/06/15 07:56:01;;;;;;;7.57;6.07;;;;;;;31.03;52.31;98212.53;4216623;28;20630;-91
2022/06/15 07:58:05;;;;;;;5.47;4.83;;;;;;;31.22;51.25;98210.59;4203488;28;20701;-90
2022/06/15 08:00:10;;;;;;;6.57;5.40;;;;;;;31.33;50.03;98207.09;4217152;28;20725;-90
2022/06/15 08:02:17;;;;;;;5.47;4.97;;;;;;;31.29;50.32;98211.31;4235213;27;20640;-91
2022/06/15 08:04:20;;;;;;;6.30;5.20;;;;;;;31.34;50.64;98214.97;4201303;28;20647;-91
2022/06/15 08:06:25;;;;;;;6.53;5.10;;;;;;;31.43;50.88;98213.59;4215378;28;20630;-91
2022/06/15 08:08:32;;;;;;;6.63;5.20;;;;;;;31.47;51.22;98214.78;4201306;28;20659;-91
2022/06/15 08:10:36;;;;;;;5.23;4.73;;;;;;;31.55;51.76;98217.13;4220064;28;20693;-91
2022/06/15 08:12:40;;;;;;;5.57;4.97;;;;;;;31.66;51.00;98213.63;4225439;28;20637;-91
2022/06/15 08:14:46;;;;;;;4.97;4.57;;;;;;;31.74;47.28;98213.25;4204522;28;20658;-90
2022/06/15 08:16:50;;;;;;;5.60;4.83;;;;;;;31.69;47.01;98210.47;4204100;28;20630;-92
2022/06/15 08:18:58;;;;;;;7.10;4.70;;;;;;;31.61;48.99;98208.91;4214854;28;21486;-90
2022/06/15 08:21:07;;;;;;;6.57;5.97;;;;;;;31.56;48.35;98210.69;4202223;28;21362;-90
2022/06/15 08:23:13;;;;;;;8.80;5.13;;;;;;;31.35;49.35;98213.91;4221300;28;20730;-90
2022/06/15 08:25:19;;;;;;;10.33;6.37;;;;;;;31.42;50.16;98211.94;4206391;28;20680;-90
2022/06/15 08:27:23;;;;;;;6.07;5.50;;;;;;;31.36;48.96;98209.34;4208871;28;20666;-91
2022/06/15 08:29:27;;;;;;;6.70;5.87;;;;;;;31.27;49.00;98208.84;4198474;28;20761;-90
2022/06/15 08:31:30;;;;;;;7.00;4.90;;;;;;;31.29;49.15;98204.06;4203567;28;20738;-91
2022/06/15 08:33:33;;;;;;;8.60;6.00;;;;;;;31.31;51.49;98206.50;4208650;28;20635;-91
2022/06/15 08:35:37;;;;;;;15.30;7.80;;;;;;;31.52;51.52;98217.59;4203656;28;20667;-91
2022/06/15 08:37:41;;;;;;;10.60;9.60;;;;;;;31.65;49.47;98206.56;4219555;28;20642;-91
2022/06/15 08:39:45;;;;;;;6.00;4.60;;;;;;;31.66;50.49;98211.72;4224100;28;20629;-92
2022/06/15 08:41:53;;;;;;;7.73;5.60;;;;;;;31.80;49.79;98205.06;4203884;28;20738;-91
2022/06/15 08:44:07;;;;;;;13.50;7.20;;;;;;;31.97;50.10;98211.44;4210847;28;20753;-91
2022/06/15 08:46:19;;;;;;;7.73;5.80;;;;;;;32.05;51.57;98206.47;4209628;28;21043;-91
2022/06/15 08:48:42;;;;;;;5.33;4.80;;;;;;;32.14;50.28;98206.94;4222975;28;21263;-90
2022/06/15 08:50:49;;;;;;;5.03;4.60;;;;;;;32.18;51.53;98205.44;4204396;28;20656;-90
2022/06/15 08:52:57;;;;;;;6.73;4.80;;;;;;;32.21;49.65;98207.66;4208142;28;20636;-91
2022/06/15 08:55:08;;;;;;;6.63;4.77;;;;;;;32.24;51.21;98212.59;4221823;28;21313;-90
2022/06/15 08:57:15;;;;;;;4.40;4.00;;;;;;;32.30;48.26;98212.44;4201770;28;20634;-91
2022/06/15 08:59:22;;;;;;;4.90;4.20;;;;;;;32.32;48.57;98213.00;4217154;28;20629;-90
2022/06/15 09:01:31;;;;;;;4.70;4.30;;;;;;;32.37;50.11;98215.81;4215830;28;20614;-90
2022/06/15 09:03:38;;;;;;;5.30;4.40;;;;;;;32.36;49.54;98212.31;4211427;28;20615;-91
2022/06/15 09:05:48;;;;;;;4.70;4.17;;;;;;;32.28;47.38;98211.88;4209943;28;20635;-90
2022/06/15 09:08:02;;;;;;;6.50;4.30;;;;;;;32.22;50.14;98215.53;4210500;28;20622;-91
2022/06/15 09:10:24;;;;;;;5.03;4.50;;;;;;;32.22;48.14;98218.22;4208539;28;20658;-91
2022/06/15 09:12:55;;;;;;;5.23;4.27;;;;;;;32.08;49.10;98218.69;4210357;28;20649;-91
2022/06/15 09:15:07;;;;;;;4.70;4.30;;;;;;;32.10;49.58;98212.00;4205554;28;20683;-90
2022/06/15 09:17:13;;;;;;;5.10;4.60;;;;;;;32.16;47.62;98210.22;4208247;28;20678;-91
2022/06/15 09:19:20;;;;;;;5.73;4.80;;;;;;;32.20;48.97;98209.50;4209944;28;20638;-91
2022/06/15 09:21:27;;;;;;;7.80;4.93;;;;;;;32.21;47.70;98216.56;4201538;28;20652;-91
2022/06/15 09:23:33;;;;;;;4.93;4.43;;;;;;;32.15;47.20;98209.41;4203192;28;21015;-90
2022/06/15 09:25:42;;;;;;;6.40;4.70;;;;;;;32.09;50.70;98210.34;4204205;28;20718;-89
2022/06/15 09:27:50;;;;;;;6.63;4.23;;;;;;;32.18;50.98;98213.53;4227188;27;20744;-90
2022/06/15 09:29:56;;;;;;;5.60;4.80;;;;;;;32.22;50.93;98210.13;4203226;28;20759;-91
2022/06/15 09:32:04;;;;;;;6.93;6.00;;;;;;;32.18;49.88;98206.22;4220858;28;20634;-91
2022/06/15 09:34:10;;;;;;;4.73;4.23;;;;;;;32.22;49.20;98211.97;4227066;28;20648;-90
2022/06/15 09:36:21;;;;;;;5.30;4.30;;;;;;;32.26;50.16;98211.25;4203902;28;20628;-90
2022/06/15 09:38:25;;;;;;;5.83;4.40;;;;;;;32.22;48.88;98215.53;4209997;28;20642;-90
2022/06/15 09:40:33;;;;;;;5.83;5.07;;;;;;;32.22;50.58;98210.13;4223947;28;20651;-90
2022/06/15 09:42:44;;;;;;;5.20;4.53;;;;;;;32.11;50.04;98208.22;4206128;28;20634;-90
2022/06/15 09:44:54;;;;;;;5.83;4.87;;;;;;;32.03;48.75;98199.69;4223813;28;20646;-90
2022/06/15 09:47:01;;;;;;;6.40;4.17;;;;;;;31.92;47.94;98203.22;4207916;28;20641;-90
2022/06/15 09:49:20;;;;;;;6.00;4.57;;;;;;;31.84;49.91;98197.31;4205247;28;20692;-90
2022/06/15 09:51:49;;;;;;;5.30;4.40;;;;;;;31.88;50.24;98207.41;4233947;27;20688;-90
2022/06/15 09:54:01;;;;;;;5.77;4.20;;;;;;;31.89;50.27;98200.97;4209854;28;20626;-90
2022/06/15 09:56:07;;;;;;;4.50;4.10;;;;;;;31.90;49.65;98205.28;4207369;28;21487;-90
2022/06/15 09:58:30;;;;;;;4.90;4.40;;;;;;;31.88;48.16;98197.41;4207273;28;21261;-91
2022/06/15 10:00:33;;;;;;;5.27;4.10;;;;;;;31.90;49.70;98200.72;4208218;28;20672;-89
2022/06/15 10:02:39;;;;;;;5.20;4.70;;;;;;;31.95;51.08;98195.47;4204508;28;20634;-90
2022/06/15 10:04:43;;;;;;;4.97;4.47;;;;;;;32.00;50.77;98200.97;4203183;28;20665;-91
2022/06/15 10:06:51;;;;;;;5.90;4.43;;;;;;;32.01;49.87;98202.63;4205462;28;21401;-92